<?xml version="1.0" encoding="UTF-8"?>
<gpx xmlns="http://www.topografix.com/GPX/1/1" xmlns:gpsies="http://www.gpsies.com/GPX/1/0" creator="GPSies http://www.gpsies.com - Eshtaol-Tasora" version="1.1" xmlns:xsi="http://www.w3.org/2001/XMLSchema-instance" xsi:schemaLocation="http://www.topografix.com/GPX/1/1 http://www.topografix.com/GPX/1/1/gpx.xsd http://www.gpsies.com/GPX/1/0 http://www.gpsies.com/gpsies.xsd">
  <metadata>
    <name>Eshtaol-Tasora</name>
    <desc>Проект</desc>
    <author>
      <name>igorsk</name>
      <link href="http://www.gpsies.com/mapUser.do?username=igorsk">
        <text>igorsk on GPSies.com</text>
        <type>GPSiesUserOnWeb</type>
      </link>
    </author>
    <link href="http://www.gpsies.com/map.do?fileId=drxyvrnjrptsvlnz">
      <text>Eshtaol-Tasora on GPSies.com</text>
      <type>trackOnWeb</type>
    </link>
    <time>2016-09-19T12:39:06Z</time>
    <extensions>
      <gpsies:property>round trip</gpsies:property>
      <gpsies:trackLengthMeter>25945.153271253115</gpsies:trackLengthMeter>
      <gpsies:totalAscentMeter>529.0</gpsies:totalAscentMeter>
      <gpsies:totalDescentMeter>530.0</gpsies:totalDescentMeter>
      <gpsies:minHeightMeter>165.0</gpsies:minHeightMeter>
      <gpsies:maxHeightMeter>401.0</gpsies:maxHeightMeter>
    </extensions>
  </metadata>
  <trk>
    <name>Eshtaol-Tasora on GPSies.com</name>
    <link href="http://www.gpsies.com/map.do?fileId=drxyvrnjrptsvlnz">
      <type>trackOnWeb</type>
    </link>
    <link href="http://www.gpsies.com/charts/dr/map/drxyvrnjrptsvlnz_map.png">
      <type>elevationChartUrlMap</type>
    </link>
    <link href="http://www.gpsies.com/charts/dr/mapThumb/drxyvrnjrptsvlnz_mapThumb.png">
      <type>elevationChartUrlMapThumb</type>
    </link>
    <link href="http://www.gpsies.com/charts/dr/tab/drxyvrnjrptsvlnz_tab.png">
      <type>elevationChartUrlTab</type>
    </link>
    <trkseg>
      <trkpt lat="31.81618570" lon="34.98154160">
        <ele>306.00000</ele>
        <time>2010-01-01T00:00:00Z</time>
      </trkpt>
      <trkpt lat="31.81607000" lon="34.98214000">
        <ele>310.00000</ele>
        <time>2010-01-01T00:00:20Z</time>
      </trkpt>
      <trkpt lat="31.81601000" lon="34.98256000">
        <ele>312.00000</ele>
        <time>2010-01-01T00:00:35Z</time>
      </trkpt>
      <trkpt lat="31.81600000" lon="34.98286000">
        <ele>315.00000</ele>
        <time>2010-01-01T00:00:45Z</time>
      </trkpt>
      <trkpt lat="31.81611000" lon="34.98392000">
        <ele>318.00000</ele>
        <time>2010-01-01T00:01:21Z</time>
      </trkpt>
      <trkpt lat="31.81618000" lon="34.98518000">
        <ele>315.00000</ele>
        <time>2010-01-01T00:02:04Z</time>
      </trkpt>
      <trkpt lat="31.81609000" lon="34.98608000">
        <ele>317.00000</ele>
        <time>2010-01-01T00:02:35Z</time>
      </trkpt>
      <trkpt lat="31.81603000" lon="34.98686000">
        <ele>317.00000</ele>
        <time>2010-01-01T00:03:02Z</time>
      </trkpt>
      <trkpt lat="31.81596000" lon="34.98738000">
        <ele>318.00000</ele>
        <time>2010-01-01T00:03:20Z</time>
      </trkpt>
      <trkpt lat="31.81603000" lon="34.98816000">
        <ele>318.00000</ele>
        <time>2010-01-01T00:03:46Z</time>
      </trkpt>
      <trkpt lat="31.81627000" lon="34.98839000">
        <ele>316.00000</ele>
        <time>2010-01-01T00:03:59Z</time>
      </trkpt>
      <trkpt lat="31.81724000" lon="34.98892000">
        <ele>314.00000</ele>
        <time>2010-01-01T00:04:42Z</time>
      </trkpt>
      <trkpt lat="31.81741000" lon="34.98918000">
        <ele>312.00000</ele>
        <time>2010-01-01T00:04:53Z</time>
      </trkpt>
      <trkpt lat="31.81748000" lon="34.98945000">
        <ele>311.00000</ele>
        <time>2010-01-01T00:05:02Z</time>
      </trkpt>
      <trkpt lat="31.81749000" lon="34.98959000">
        <ele>311.00000</ele>
        <time>2010-01-01T00:05:07Z</time>
      </trkpt>
      <trkpt lat="31.81737000" lon="34.98994000">
        <ele>310.00000</ele>
        <time>2010-01-01T00:05:20Z</time>
      </trkpt>
      <trkpt lat="31.81707000" lon="34.99015000">
        <ele>310.00000</ele>
        <time>2010-01-01T00:05:34Z</time>
      </trkpt>
      <trkpt lat="31.81674000" lon="34.99020000">
        <ele>314.00000</ele>
        <time>2010-01-01T00:05:47Z</time>
      </trkpt>
      <trkpt lat="31.81607000" lon="34.99036000">
        <ele>322.00000</ele>
        <time>2010-01-01T00:06:15Z</time>
      </trkpt>
      <trkpt lat="31.81577000" lon="34.99037000">
        <ele>322.00000</ele>
        <time>2010-01-01T00:06:27Z</time>
      </trkpt>
      <trkpt lat="31.81542000" lon="34.99034000">
        <ele>323.00000</ele>
        <time>2010-01-01T00:06:41Z</time>
      </trkpt>
      <trkpt lat="31.81494000" lon="34.99014000">
        <ele>323.00000</ele>
        <time>2010-01-01T00:07:01Z</time>
      </trkpt>
      <trkpt lat="31.81442000" lon="34.98983000">
        <ele>326.00000</ele>
        <time>2010-01-01T00:07:24Z</time>
      </trkpt>
      <trkpt lat="31.81370000" lon="34.98946000">
        <ele>328.00000</ele>
        <time>2010-01-01T00:07:56Z</time>
      </trkpt>
      <trkpt lat="31.81298000" lon="34.98923000">
        <ele>332.00000</ele>
        <time>2010-01-01T00:08:26Z</time>
      </trkpt>
      <trkpt lat="31.81263000" lon="34.98917000">
        <ele>331.00000</ele>
        <time>2010-01-01T00:08:40Z</time>
      </trkpt>
      <trkpt lat="31.81196000" lon="34.98915000">
        <ele>334.00000</ele>
        <time>2010-01-01T00:09:07Z</time>
      </trkpt>
      <trkpt lat="31.81120000" lon="34.98955000">
        <ele>332.00000</ele>
        <time>2010-01-01T00:09:40Z</time>
      </trkpt>
      <trkpt lat="31.81104000" lon="34.98958000">
        <ele>333.00000</ele>
        <time>2010-01-01T00:09:47Z</time>
      </trkpt>
      <trkpt lat="31.81061000" lon="34.98952000">
        <ele>335.00000</ele>
        <time>2010-01-01T00:10:04Z</time>
      </trkpt>
      <trkpt lat="31.81007000" lon="34.98978000">
        <ele>335.00000</ele>
        <time>2010-01-01T00:10:27Z</time>
      </trkpt>
      <trkpt lat="31.80787000" lon="34.99156000">
        <ele>339.00000</ele>
        <time>2010-01-01T00:12:14Z</time>
      </trkpt>
      <trkpt lat="31.80787000" lon="34.99168000">
        <ele>339.00000</ele>
        <time>2010-01-01T00:12:18Z</time>
      </trkpt>
      <trkpt lat="31.80832000" lon="34.99243000">
        <ele>337.00000</ele>
        <time>2010-01-01T00:12:49Z</time>
      </trkpt>
      <trkpt lat="31.80824000" lon="34.99249000">
        <ele>335.00000</ele>
        <time>2010-01-01T00:12:53Z</time>
      </trkpt>
      <trkpt lat="31.80812000" lon="34.99251000">
        <ele>334.00000</ele>
        <time>2010-01-01T00:12:58Z</time>
      </trkpt>
      <trkpt lat="31.80791000" lon="34.99255000">
        <ele>332.00000</ele>
        <time>2010-01-01T00:13:07Z</time>
      </trkpt>
      <trkpt lat="31.80773000" lon="34.99262000">
        <ele>331.00000</ele>
        <time>2010-01-01T00:13:14Z</time>
      </trkpt>
      <trkpt lat="31.80729000" lon="34.99286000">
        <ele>326.00000</ele>
        <time>2010-01-01T00:13:34Z</time>
      </trkpt>
      <trkpt lat="31.80712000" lon="34.99286000">
        <ele>327.00000</ele>
        <time>2010-01-01T00:13:40Z</time>
      </trkpt>
      <trkpt lat="31.80706000" lon="34.99290000">
        <ele>326.00000</ele>
        <time>2010-01-01T00:13:43Z</time>
      </trkpt>
      <trkpt lat="31.80711000" lon="34.99303000">
        <ele>322.00000</ele>
        <time>2010-01-01T00:13:48Z</time>
      </trkpt>
      <trkpt lat="31.80722000" lon="34.99309000">
        <ele>320.00000</ele>
        <time>2010-01-01T00:13:53Z</time>
      </trkpt>
      <trkpt lat="31.80786000" lon="34.99332000">
        <ele>314.00000</ele>
        <time>2010-01-01T00:14:20Z</time>
      </trkpt>
      <trkpt lat="31.80791000" lon="34.99335000">
        <ele>313.00000</ele>
        <time>2010-01-01T00:14:22Z</time>
      </trkpt>
      <trkpt lat="31.80796000" lon="34.99350000">
        <ele>309.00000</ele>
        <time>2010-01-01T00:14:27Z</time>
      </trkpt>
      <trkpt lat="31.80795000" lon="34.99388000">
        <ele>300.00000</ele>
        <time>2010-01-01T00:14:40Z</time>
      </trkpt>
      <trkpt lat="31.80790000" lon="34.99421000">
        <ele>297.00000</ele>
        <time>2010-01-01T00:14:52Z</time>
      </trkpt>
      <trkpt lat="31.80791000" lon="34.99429000">
        <ele>296.00000</ele>
        <time>2010-01-01T00:14:54Z</time>
      </trkpt>
      <trkpt lat="31.80807000" lon="34.99453000">
        <ele>291.00000</ele>
        <time>2010-01-01T00:15:05Z</time>
      </trkpt>
      <trkpt lat="31.80820000" lon="34.99457000">
        <ele>291.00000</ele>
        <time>2010-01-01T00:15:10Z</time>
      </trkpt>
      <trkpt lat="31.80851000" lon="34.99481000">
        <ele>289.00000</ele>
        <time>2010-01-01T00:15:25Z</time>
      </trkpt>
      <trkpt lat="31.80861000" lon="34.99491000">
        <ele>289.00000</ele>
        <time>2010-01-01T00:15:30Z</time>
      </trkpt>
      <trkpt lat="31.80911000" lon="34.99510000">
        <ele>292.00000</ele>
        <time>2010-01-01T00:15:51Z</time>
      </trkpt>
      <trkpt lat="31.81048000" lon="34.99503000">
        <ele>273.00000</ele>
        <time>2010-01-01T00:16:46Z</time>
      </trkpt>
      <trkpt lat="31.81089000" lon="34.99519000">
        <ele>274.00000</ele>
        <time>2010-01-01T00:17:04Z</time>
      </trkpt>
      <trkpt lat="31.81125000" lon="34.99528000">
        <ele>278.00000</ele>
        <time>2010-01-01T00:17:18Z</time>
      </trkpt>
      <trkpt lat="31.81170000" lon="34.99533000">
        <ele>279.00000</ele>
        <time>2010-01-01T00:17:36Z</time>
      </trkpt>
      <trkpt lat="31.81202000" lon="34.99547000">
        <ele>280.00000</ele>
        <time>2010-01-01T00:17:50Z</time>
      </trkpt>
      <trkpt lat="31.81229000" lon="34.99567000">
        <ele>282.00000</ele>
        <time>2010-01-01T00:18:03Z</time>
      </trkpt>
      <trkpt lat="31.81311000" lon="34.99653000">
        <ele>290.00000</ele>
        <time>2010-01-01T00:18:47Z</time>
      </trkpt>
      <trkpt lat="31.81315000" lon="34.99681000">
        <ele>294.00000</ele>
        <time>2010-01-01T00:18:56Z</time>
      </trkpt>
      <trkpt lat="31.81307000" lon="34.99711000">
        <ele>294.00000</ele>
        <time>2010-01-01T00:19:07Z</time>
      </trkpt>
      <trkpt lat="31.81280000" lon="34.99742000">
        <ele>297.00000</ele>
        <time>2010-01-01T00:19:22Z</time>
      </trkpt>
      <trkpt lat="31.81241000" lon="34.99769000">
        <ele>302.00000</ele>
        <time>2010-01-01T00:19:40Z</time>
      </trkpt>
      <trkpt lat="31.81187000" lon="34.99800000">
        <ele>307.00000</ele>
        <time>2010-01-01T00:20:04Z</time>
      </trkpt>
      <trkpt lat="31.81161000" lon="34.99813000">
        <ele>309.00000</ele>
        <time>2010-01-01T00:20:16Z</time>
      </trkpt>
      <trkpt lat="31.81135000" lon="34.99824000">
        <ele>312.00000</ele>
        <time>2010-01-01T00:20:27Z</time>
      </trkpt>
      <trkpt lat="31.81076000" lon="34.99842000">
        <ele>316.00000</ele>
        <time>2010-01-01T00:20:51Z</time>
      </trkpt>
      <trkpt lat="31.81016000" lon="34.99858000">
        <ele>318.00000</ele>
        <time>2010-01-01T00:21:16Z</time>
      </trkpt>
      <trkpt lat="31.80992000" lon="34.99866000">
        <ele>320.00000</ele>
        <time>2010-01-01T00:21:26Z</time>
      </trkpt>
      <trkpt lat="31.80964000" lon="34.99876000">
        <ele>325.00000</ele>
        <time>2010-01-01T00:21:37Z</time>
      </trkpt>
      <trkpt lat="31.80943000" lon="34.99875000">
        <ele>328.00000</ele>
        <time>2010-01-01T00:21:46Z</time>
      </trkpt>
      <trkpt lat="31.80915000" lon="34.99867000">
        <ele>332.00000</ele>
        <time>2010-01-01T00:21:57Z</time>
      </trkpt>
      <trkpt lat="31.80892000" lon="34.99847000">
        <ele>336.00000</ele>
        <time>2010-01-01T00:22:09Z</time>
      </trkpt>
      <trkpt lat="31.80891000" lon="34.99815000">
        <ele>336.00000</ele>
        <time>2010-01-01T00:22:20Z</time>
      </trkpt>
      <trkpt lat="31.80896000" lon="34.99779000">
        <ele>334.00000</ele>
        <time>2010-01-01T00:22:32Z</time>
      </trkpt>
      <trkpt lat="31.80904000" lon="34.99736000">
        <ele>332.00000</ele>
        <time>2010-01-01T00:22:47Z</time>
      </trkpt>
      <trkpt lat="31.80894000" lon="34.99683000">
        <ele>331.00000</ele>
        <time>2010-01-01T00:23:06Z</time>
      </trkpt>
      <trkpt lat="31.80873000" lon="34.99671000">
        <ele>333.00000</ele>
        <time>2010-01-01T00:23:15Z</time>
      </trkpt>
      <trkpt lat="31.80844000" lon="34.99670000">
        <ele>336.00000</ele>
        <time>2010-01-01T00:23:27Z</time>
      </trkpt>
      <trkpt lat="31.80788000" lon="34.99697000">
        <ele>341.00000</ele>
        <time>2010-01-01T00:23:51Z</time>
      </trkpt>
      <trkpt lat="31.80766000" lon="34.99716000">
        <ele>341.00000</ele>
        <time>2010-01-01T00:24:02Z</time>
      </trkpt>
      <trkpt lat="31.80746000" lon="34.99748000">
        <ele>342.00000</ele>
        <time>2010-01-01T00:24:15Z</time>
      </trkpt>
      <trkpt lat="31.80731000" lon="34.99787000">
        <ele>342.00000</ele>
        <time>2010-01-01T00:24:30Z</time>
      </trkpt>
      <trkpt lat="31.80727000" lon="34.99899000">
        <ele>348.00000</ele>
        <time>2010-01-01T00:25:08Z</time>
      </trkpt>
      <trkpt lat="31.80688000" lon="34.99927000">
        <ele>347.00000</ele>
        <time>2010-01-01T00:25:26Z</time>
      </trkpt>
      <trkpt lat="31.80637000" lon="34.99917000">
        <ele>346.00000</ele>
        <time>2010-01-01T00:25:47Z</time>
      </trkpt>
      <trkpt lat="31.80581000" lon="34.99889000">
        <ele>344.00000</ele>
        <time>2010-01-01T00:26:11Z</time>
      </trkpt>
      <trkpt lat="31.80556000" lon="34.99831000">
        <ele>341.00000</ele>
        <time>2010-01-01T00:26:33Z</time>
      </trkpt>
      <trkpt lat="31.80526000" lon="34.99797000">
        <ele>342.00000</ele>
        <time>2010-01-01T00:26:50Z</time>
      </trkpt>
      <trkpt lat="31.80478000" lon="34.99787000">
        <ele>351.00000</ele>
        <time>2010-01-01T00:27:10Z</time>
      </trkpt>
      <trkpt lat="31.80432000" lon="34.99805000">
        <ele>353.00000</ele>
        <time>2010-01-01T00:27:29Z</time>
      </trkpt>
      <trkpt lat="31.80396000" lon="34.99842000">
        <ele>354.00000</ele>
        <time>2010-01-01T00:27:48Z</time>
      </trkpt>
      <trkpt lat="31.80269000" lon="34.99946000">
        <ele>359.00000</ele>
        <time>2010-01-01T00:28:50Z</time>
      </trkpt>
      <trkpt lat="31.80229000" lon="34.99924000">
        <ele>360.00000</ele>
        <time>2010-01-01T00:29:08Z</time>
      </trkpt>
      <trkpt lat="31.80213000" lon="34.99903000">
        <ele>360.00000</ele>
        <time>2010-01-01T00:29:17Z</time>
      </trkpt>
      <trkpt lat="31.80188000" lon="34.99881000">
        <ele>360.00000</ele>
        <time>2010-01-01T00:29:30Z</time>
      </trkpt>
      <trkpt lat="31.80144000" lon="34.99871000">
        <ele>358.00000</ele>
        <time>2010-01-01T00:29:48Z</time>
      </trkpt>
      <trkpt lat="31.80097000" lon="34.99916000">
        <ele>364.00000</ele>
        <time>2010-01-01T00:30:12Z</time>
      </trkpt>
      <trkpt lat="31.80078000" lon="34.99940000">
        <ele>369.00000</ele>
        <time>2010-01-01T00:30:23Z</time>
      </trkpt>
      <trkpt lat="31.80083000" lon="34.99966000">
        <ele>372.00000</ele>
        <time>2010-01-01T00:30:32Z</time>
      </trkpt>
      <trkpt lat="31.80069000" lon="34.99982000">
        <ele>374.00000</ele>
        <time>2010-01-01T00:30:40Z</time>
      </trkpt>
      <trkpt lat="31.80030000" lon="34.99986000">
        <ele>375.00000</ele>
        <time>2010-01-01T00:30:56Z</time>
      </trkpt>
      <trkpt lat="31.80002000" lon="34.99981000">
        <ele>375.00000</ele>
        <time>2010-01-01T00:31:07Z</time>
      </trkpt>
      <trkpt lat="31.79976000" lon="34.99980000">
        <ele>376.00000</ele>
        <time>2010-01-01T00:31:17Z</time>
      </trkpt>
      <trkpt lat="31.79965000" lon="34.99987000">
        <ele>378.00000</ele>
        <time>2010-01-01T00:31:22Z</time>
      </trkpt>
      <trkpt lat="31.79968000" lon="34.99996000">
        <ele>379.00000</ele>
        <time>2010-01-01T00:31:26Z</time>
      </trkpt>
      <trkpt lat="31.79988000" lon="35.00021000">
        <ele>378.00000</ele>
        <time>2010-01-01T00:31:37Z</time>
      </trkpt>
      <trkpt lat="31.79994000" lon="35.00044000">
        <ele>377.00000</ele>
        <time>2010-01-01T00:31:46Z</time>
      </trkpt>
      <trkpt lat="31.79971000" lon="35.00072000">
        <ele>379.00000</ele>
        <time>2010-01-01T00:31:59Z</time>
      </trkpt>
      <trkpt lat="31.79921000" lon="35.00106000">
        <ele>378.00000</ele>
        <time>2010-01-01T00:32:22Z</time>
      </trkpt>
      <trkpt lat="31.79881000" lon="35.00113000">
        <ele>375.00000</ele>
        <time>2010-01-01T00:32:38Z</time>
      </trkpt>
      <trkpt lat="31.79819000" lon="35.00076000">
        <ele>372.00000</ele>
        <time>2010-01-01T00:33:06Z</time>
      </trkpt>
      <trkpt lat="31.79809000" lon="35.00072000">
        <ele>371.00000</ele>
        <time>2010-01-01T00:33:10Z</time>
      </trkpt>
      <trkpt lat="31.79731000" lon="35.00082000">
        <ele>365.00000</ele>
        <time>2010-01-01T00:33:42Z</time>
      </trkpt>
      <trkpt lat="31.79707000" lon="35.00082000">
        <ele>366.00000</ele>
        <time>2010-01-01T00:33:51Z</time>
      </trkpt>
      <trkpt lat="31.79662000" lon="35.00069000">
        <ele>372.00000</ele>
        <time>2010-01-01T00:34:10Z</time>
      </trkpt>
      <trkpt lat="31.79655000" lon="35.00065000">
        <ele>373.00000</ele>
        <time>2010-01-01T00:34:13Z</time>
      </trkpt>
      <trkpt lat="31.79619000" lon="35.00049000">
        <ele>374.00000</ele>
        <time>2010-01-01T00:34:28Z</time>
      </trkpt>
      <trkpt lat="31.79592000" lon="35.00038000">
        <ele>373.00000</ele>
        <time>2010-01-01T00:34:40Z</time>
      </trkpt>
      <trkpt lat="31.79579000" lon="35.00036000">
        <ele>373.00000</ele>
        <time>2010-01-01T00:34:45Z</time>
      </trkpt>
      <trkpt lat="31.79550000" lon="35.00043000">
        <ele>374.00000</ele>
        <time>2010-01-01T00:34:57Z</time>
      </trkpt>
      <trkpt lat="31.79510000" lon="35.00043000">
        <ele>372.00000</ele>
        <time>2010-01-01T00:35:13Z</time>
      </trkpt>
      <trkpt lat="31.79438000" lon="35.00063000">
        <ele>374.00000</ele>
        <time>2010-01-01T00:35:43Z</time>
      </trkpt>
      <trkpt lat="31.79437000" lon="35.00073000">
        <ele>375.00000</ele>
        <time>2010-01-01T00:35:46Z</time>
      </trkpt>
      <trkpt lat="31.79455000" lon="35.00083000">
        <ele>376.00000</ele>
        <time>2010-01-01T00:35:54Z</time>
      </trkpt>
      <trkpt lat="31.79513000" lon="35.00066000">
        <ele>376.00000</ele>
        <time>2010-01-01T00:36:18Z</time>
      </trkpt>
      <trkpt lat="31.79546000" lon="35.00072000">
        <ele>380.00000</ele>
        <time>2010-01-01T00:36:31Z</time>
      </trkpt>
      <trkpt lat="31.79566000" lon="35.00083000">
        <ele>382.00000</ele>
        <time>2010-01-01T00:36:40Z</time>
      </trkpt>
      <trkpt lat="31.79591000" lon="35.00107000">
        <ele>384.00000</ele>
        <time>2010-01-01T00:36:53Z</time>
      </trkpt>
      <trkpt lat="31.79584000" lon="35.00139000">
        <ele>385.00000</ele>
        <time>2010-01-01T00:37:04Z</time>
      </trkpt>
      <trkpt lat="31.79563000" lon="35.00173000">
        <ele>385.00000</ele>
        <time>2010-01-01T00:37:18Z</time>
      </trkpt>
      <trkpt lat="31.79522000" lon="35.00217000">
        <ele>390.00000</ele>
        <time>2010-01-01T00:37:41Z</time>
      </trkpt>
      <trkpt lat="31.79479000" lon="35.00260000">
        <ele>393.00000</ele>
        <time>2010-01-01T00:38:03Z</time>
      </trkpt>
      <trkpt lat="31.79452000" lon="35.00284000">
        <ele>393.00000</ele>
        <time>2010-01-01T00:38:17Z</time>
      </trkpt>
      <trkpt lat="31.79427000" lon="35.00325000">
        <ele>395.00000</ele>
        <time>2010-01-01T00:38:34Z</time>
      </trkpt>
      <trkpt lat="31.79384000" lon="35.00410000">
        <ele>399.00000</ele>
        <time>2010-01-01T00:39:08Z</time>
      </trkpt>
      <trkpt lat="31.79345000" lon="35.00453000">
        <ele>393.00000</ele>
        <time>2010-01-01T00:39:29Z</time>
      </trkpt>
      <trkpt lat="31.79313570" lon="35.00458710">
        <ele>392.00000</ele>
        <time>2010-01-01T00:39:42Z</time>
      </trkpt>
      <trkpt lat="31.79294420" lon="35.00449060">
        <ele>391.00000</ele>
        <time>2010-01-01T00:39:50Z</time>
      </trkpt>
      <trkpt lat="31.79275270" lon="35.00444760">
        <ele>388.00000</ele>
        <time>2010-01-01T00:39:58Z</time>
      </trkpt>
      <trkpt lat="31.79224200" lon="35.00437250">
        <ele>384.00000</ele>
        <time>2010-01-01T00:40:19Z</time>
      </trkpt>
      <trkpt lat="31.79145780" lon="35.00430820">
        <ele>375.00000</ele>
        <time>2010-01-01T00:40:50Z</time>
      </trkpt>
      <trkpt lat="31.79010810" lon="35.00409360">
        <ele>366.00000</ele>
        <time>2010-01-01T00:41:45Z</time>
      </trkpt>
      <trkpt lat="31.78886790" lon="35.00413650">
        <ele>351.00000</ele>
        <time>2010-01-01T00:42:34Z</time>
      </trkpt>
      <trkpt lat="31.78791940" lon="35.00523090">
        <ele>342.00000</ele>
        <time>2010-01-01T00:43:27Z</time>
      </trkpt>
      <trkpt lat="31.78855780" lon="35.00355720">
        <ele>332.00000</ele>
        <time>2010-01-01T00:44:30Z</time>
      </trkpt>
      <trkpt lat="31.78894080" lon="35.00314950">
        <ele>332.00000</ele>
        <time>2010-01-01T00:44:50Z</time>
      </trkpt>
      <trkpt lat="31.78912320" lon="35.00276320">
        <ele>333.00000</ele>
        <time>2010-01-01T00:45:06Z</time>
      </trkpt>
      <trkpt lat="31.78965210" lon="35.00151870">
        <ele>325.00000</ele>
        <time>2010-01-01T00:45:53Z</time>
      </trkpt>
      <trkpt lat="31.79027230" lon="35.00141140">
        <ele>329.00000</ele>
        <time>2010-01-01T00:46:18Z</time>
      </trkpt>
      <trkpt lat="31.79051850" lon="35.00118070">
        <ele>330.00000</ele>
        <time>2010-01-01T00:46:31Z</time>
      </trkpt>
      <trkpt lat="31.79060060" lon="35.00081060">
        <ele>331.00000</ele>
        <time>2010-01-01T00:46:44Z</time>
      </trkpt>
      <trkpt lat="31.79031790" lon="35.00045650">
        <ele>327.00000</ele>
        <time>2010-01-01T00:47:00Z</time>
      </trkpt>
      <trkpt lat="31.78938000" lon="34.99997000">
        <ele>324.00000</ele>
        <time>2010-01-01T00:47:41Z</time>
      </trkpt>
      <trkpt lat="31.78897000" lon="35.00013000">
        <ele>316.00000</ele>
        <time>2010-01-01T00:47:58Z</time>
      </trkpt>
      <trkpt lat="31.78930560" lon="35.00053160">
        <ele>310.00000</ele>
        <time>2010-01-01T00:48:18Z</time>
      </trkpt>
      <trkpt lat="31.78932380" lon="35.00086420">
        <ele>310.00000</ele>
        <time>2010-01-01T00:48:29Z</time>
      </trkpt>
      <trkpt lat="31.78923270" lon="35.00093930">
        <ele>309.00000</ele>
        <time>2010-01-01T00:48:33Z</time>
      </trkpt>
      <trkpt lat="31.78908670" lon="35.00112170">
        <ele>309.00000</ele>
        <time>2010-01-01T00:48:42Z</time>
      </trkpt>
      <trkpt lat="31.78876760" lon="35.00142210">
        <ele>308.00000</ele>
        <time>2010-01-01T00:48:58Z</time>
      </trkpt>
      <trkpt lat="31.78848490" lon="35.00193710">
        <ele>308.00000</ele>
        <time>2010-01-01T00:49:19Z</time>
      </trkpt>
      <trkpt lat="31.78842100" lon="35.00223750">
        <ele>309.00000</ele>
        <time>2010-01-01T00:49:30Z</time>
      </trkpt>
      <trkpt lat="31.78827510" lon="35.00239840">
        <ele>308.00000</ele>
        <time>2010-01-01T00:49:38Z</time>
      </trkpt>
      <trkpt lat="31.78813830" lon="35.00254860">
        <ele>308.00000</ele>
        <time>2010-01-01T00:49:45Z</time>
      </trkpt>
      <trkpt lat="31.78795590" lon="35.00261300">
        <ele>308.00000</ele>
        <time>2010-01-01T00:49:53Z</time>
      </trkpt>
      <trkpt lat="31.78711690" lon="35.00203370">
        <ele>298.00000</ele>
        <time>2010-01-01T00:50:32Z</time>
      </trkpt>
      <trkpt lat="31.78591310" lon="35.00160450">
        <ele>285.00000</ele>
        <time>2010-01-01T00:51:22Z</time>
      </trkpt>
      <trkpt lat="31.78449040" lon="35.00201220">
        <ele>277.00000</ele>
        <time>2010-01-01T00:52:21Z</time>
      </trkpt>
      <trkpt lat="31.78148080" lon="35.00220530">
        <ele>263.00000</ele>
        <time>2010-01-01T00:54:21Z</time>
      </trkpt>
      <trkpt lat="31.78126190" lon="35.00190490">
        <ele>266.00000</ele>
        <time>2010-01-01T00:54:35Z</time>
      </trkpt>
      <trkpt lat="31.78142610" lon="35.00091790">
        <ele>267.00000</ele>
        <time>2010-01-01T00:55:09Z</time>
      </trkpt>
      <trkpt lat="31.78128020" lon="35.00056380">
        <ele>269.00000</ele>
        <time>2010-01-01T00:55:22Z</time>
      </trkpt>
      <trkpt lat="31.78138960" lon="34.99995230">
        <ele>272.00000</ele>
        <time>2010-01-01T00:55:44Z</time>
      </trkpt>
      <trkpt lat="31.78176350" lon="34.99919050">
        <ele>275.00000</ele>
        <time>2010-01-01T00:56:14Z</time>
      </trkpt>
      <trkpt lat="31.78220130" lon="34.99845020">
        <ele>278.00000</ele>
        <time>2010-01-01T00:56:44Z</time>
      </trkpt>
      <trkpt lat="31.78294000" lon="34.99769920">
        <ele>286.00000</ele>
        <time>2010-01-01T00:57:23Z</time>
      </trkpt>
      <trkpt lat="31.78350550" lon="34.99873990">
        <ele>289.00000</ele>
        <time>2010-01-01T00:58:05Z</time>
      </trkpt>
      <trkpt lat="31.78395240" lon="34.99902960">
        <ele>290.00000</ele>
        <time>2010-01-01T00:58:26Z</time>
      </trkpt>
      <trkpt lat="31.78453600" lon="34.99919050">
        <ele>295.00000</ele>
        <time>2010-01-01T00:58:50Z</time>
      </trkpt>
      <trkpt lat="31.78528390" lon="34.99916910">
        <ele>301.00000</ele>
        <time>2010-01-01T00:59:20Z</time>
      </trkpt>
      <trkpt lat="31.78574900" lon="34.99875060">
        <ele>307.00000</ele>
        <time>2010-01-01T00:59:43Z</time>
      </trkpt>
      <trkpt lat="31.78606820" lon="34.99861120">
        <ele>311.00000</ele>
        <time>2010-01-01T00:59:57Z</time>
      </trkpt>
      <trkpt lat="31.78635090" lon="34.99835370">
        <ele>314.00000</ele>
        <time>2010-01-01T01:00:11Z</time>
      </trkpt>
      <trkpt lat="31.78666090" lon="34.99816060">
        <ele>316.00000</ele>
        <time>2010-01-01T01:00:25Z</time>
      </trkpt>
      <trkpt lat="31.78697000" lon="34.99777000">
        <ele>317.00000</ele>
        <time>2010-01-01T01:00:43Z</time>
      </trkpt>
      <trkpt lat="31.78705000" lon="34.99750000">
        <ele>319.00000</ele>
        <time>2010-01-01T01:00:53Z</time>
      </trkpt>
      <trkpt lat="31.78707000" lon="34.99731000">
        <ele>321.00000</ele>
        <time>2010-01-01T01:01:00Z</time>
      </trkpt>
      <trkpt lat="31.78708000" lon="34.99712000">
        <ele>323.00000</ele>
        <time>2010-01-01T01:01:06Z</time>
      </trkpt>
      <trkpt lat="31.78706000" lon="34.99685000">
        <ele>325.00000</ele>
        <time>2010-01-01T01:01:15Z</time>
      </trkpt>
      <trkpt lat="31.78696000" lon="34.99630000">
        <ele>327.00000</ele>
        <time>2010-01-01T01:01:34Z</time>
      </trkpt>
      <trkpt lat="31.78678000" lon="34.99616000">
        <ele>328.00000</ele>
        <time>2010-01-01T01:01:43Z</time>
      </trkpt>
      <trkpt lat="31.78650000" lon="34.99628000">
        <ele>330.00000</ele>
        <time>2010-01-01T01:01:55Z</time>
      </trkpt>
      <trkpt lat="31.78617000" lon="34.99632000">
        <ele>335.00000</ele>
        <time>2010-01-01T01:02:08Z</time>
      </trkpt>
      <trkpt lat="31.78605900" lon="34.99628300">
        <ele>336.00000</ele>
        <time>2010-01-01T01:02:13Z</time>
      </trkpt>
      <trkpt lat="31.78609000" lon="34.99607000">
        <ele>337.00000</ele>
        <time>2010-01-01T01:02:20Z</time>
      </trkpt>
      <trkpt lat="31.78675000" lon="34.99531000">
        <ele>335.00000</ele>
        <time>2010-01-01T01:02:57Z</time>
      </trkpt>
      <trkpt lat="31.78704000" lon="34.99505000">
        <ele>333.00000</ele>
        <time>2010-01-01T01:03:12Z</time>
      </trkpt>
      <trkpt lat="31.78712000" lon="34.99482000">
        <ele>333.00000</ele>
        <time>2010-01-01T01:03:20Z</time>
      </trkpt>
      <trkpt lat="31.78723000" lon="34.99379000">
        <ele>328.00000</ele>
        <time>2010-01-01T01:03:56Z</time>
      </trkpt>
      <trkpt lat="31.78717000" lon="34.99351000">
        <ele>329.00000</ele>
        <time>2010-01-01T01:04:05Z</time>
      </trkpt>
      <trkpt lat="31.78735000" lon="34.99309000">
        <ele>328.00000</ele>
        <time>2010-01-01T01:04:21Z</time>
      </trkpt>
      <trkpt lat="31.78736000" lon="34.99280000">
        <ele>330.00000</ele>
        <time>2010-01-01T01:04:31Z</time>
      </trkpt>
      <trkpt lat="31.78725000" lon="34.99244000">
        <ele>333.00000</ele>
        <time>2010-01-01T01:04:44Z</time>
      </trkpt>
      <trkpt lat="31.78720000" lon="34.99196000">
        <ele>338.00000</ele>
        <time>2010-01-01T01:05:01Z</time>
      </trkpt>
      <trkpt lat="31.78719000" lon="34.99160000">
        <ele>338.00000</ele>
        <time>2010-01-01T01:05:13Z</time>
      </trkpt>
      <trkpt lat="31.78721000" lon="34.99124000">
        <ele>339.00000</ele>
        <time>2010-01-01T01:05:25Z</time>
      </trkpt>
      <trkpt lat="31.78719000" lon="34.99107000">
        <ele>340.00000</ele>
        <time>2010-01-01T01:05:31Z</time>
      </trkpt>
      <trkpt lat="31.78724000" lon="34.99072000">
        <ele>342.00000</ele>
        <time>2010-01-01T01:05:43Z</time>
      </trkpt>
      <trkpt lat="31.78741000" lon="34.99027000">
        <ele>341.00000</ele>
        <time>2010-01-01T01:06:00Z</time>
      </trkpt>
      <trkpt lat="31.78749000" lon="34.99017000">
        <ele>338.00000</ele>
        <time>2010-01-01T01:06:05Z</time>
      </trkpt>
      <trkpt lat="31.78760000" lon="34.98991000">
        <ele>336.00000</ele>
        <time>2010-01-01T01:06:15Z</time>
      </trkpt>
      <trkpt lat="31.78751000" lon="34.98929000">
        <ele>337.00000</ele>
        <time>2010-01-01T01:06:36Z</time>
      </trkpt>
      <trkpt lat="31.78730000" lon="34.98818000">
        <ele>342.00000</ele>
        <time>2010-01-01T01:07:15Z</time>
      </trkpt>
      <trkpt lat="31.78748000" lon="34.98748000">
        <ele>339.00000</ele>
        <time>2010-01-01T01:07:40Z</time>
      </trkpt>
      <trkpt lat="31.78729000" lon="34.98687000">
        <ele>340.00000</ele>
        <time>2010-01-01T01:08:02Z</time>
      </trkpt>
      <trkpt lat="31.78662000" lon="34.98652000">
        <ele>334.00000</ele>
        <time>2010-01-01T01:08:31Z</time>
      </trkpt>
      <trkpt lat="31.78640000" lon="34.98668000">
        <ele>337.00000</ele>
        <time>2010-01-01T01:08:41Z</time>
      </trkpt>
      <trkpt lat="31.78636000" lon="34.98761000">
        <ele>335.00000</ele>
        <time>2010-01-01T01:09:13Z</time>
      </trkpt>
      <trkpt lat="31.78642000" lon="34.98810000">
        <ele>334.00000</ele>
        <time>2010-01-01T01:09:30Z</time>
      </trkpt>
      <trkpt lat="31.78636000" lon="34.98896000">
        <ele>332.00000</ele>
        <time>2010-01-01T01:09:59Z</time>
      </trkpt>
      <trkpt lat="31.78633000" lon="34.98929000">
        <ele>335.00000</ele>
        <time>2010-01-01T01:10:10Z</time>
      </trkpt>
      <trkpt lat="31.78631000" lon="34.98960000">
        <ele>337.00000</ele>
        <time>2010-01-01T01:10:21Z</time>
      </trkpt>
      <trkpt lat="31.78623000" lon="34.98986000">
        <ele>338.00000</ele>
        <time>2010-01-01T01:10:30Z</time>
      </trkpt>
      <trkpt lat="31.78612000" lon="34.99004000">
        <ele>338.00000</ele>
        <time>2010-01-01T01:10:38Z</time>
      </trkpt>
      <trkpt lat="31.78570000" lon="34.99011000">
        <ele>341.00000</ele>
        <time>2010-01-01T01:10:55Z</time>
      </trkpt>
      <trkpt lat="31.78552000" lon="34.98993000">
        <ele>338.00000</ele>
        <time>2010-01-01T01:11:04Z</time>
      </trkpt>
      <trkpt lat="31.78514000" lon="34.99016000">
        <ele>342.00000</ele>
        <time>2010-01-01T01:11:22Z</time>
      </trkpt>
      <trkpt lat="31.78496000" lon="34.99041000">
        <ele>341.00000</ele>
        <time>2010-01-01T01:11:33Z</time>
      </trkpt>
      <trkpt lat="31.78489000" lon="34.99070000">
        <ele>340.00000</ele>
        <time>2010-01-01T01:11:43Z</time>
      </trkpt>
      <trkpt lat="31.78487000" lon="34.99095000">
        <ele>341.00000</ele>
        <time>2010-01-01T01:11:52Z</time>
      </trkpt>
      <trkpt lat="31.78500000" lon="34.99127000">
        <ele>345.00000</ele>
        <time>2010-01-01T01:12:04Z</time>
      </trkpt>
      <trkpt lat="31.78498000" lon="34.99180000">
        <ele>350.00000</ele>
        <time>2010-01-01T01:12:22Z</time>
      </trkpt>
      <trkpt lat="31.78483000" lon="34.99193000">
        <ele>350.00000</ele>
        <time>2010-01-01T01:12:29Z</time>
      </trkpt>
      <trkpt lat="31.78461000" lon="34.99197000">
        <ele>349.00000</ele>
        <time>2010-01-01T01:12:38Z</time>
      </trkpt>
      <trkpt lat="31.78442000" lon="34.99193000">
        <ele>347.00000</ele>
        <time>2010-01-01T01:12:46Z</time>
      </trkpt>
      <trkpt lat="31.78411000" lon="34.99185000">
        <ele>345.00000</ele>
        <time>2010-01-01T01:12:58Z</time>
      </trkpt>
      <trkpt lat="31.78386000" lon="34.99172000">
        <ele>346.00000</ele>
        <time>2010-01-01T01:13:09Z</time>
      </trkpt>
      <trkpt lat="31.78346000" lon="34.99129000">
        <ele>343.00000</ele>
        <time>2010-01-01T01:13:31Z</time>
      </trkpt>
      <trkpt lat="31.78323000" lon="34.99070000">
        <ele>338.00000</ele>
        <time>2010-01-01T01:13:53Z</time>
      </trkpt>
      <trkpt lat="31.78319000" lon="34.99055000">
        <ele>336.00000</ele>
        <time>2010-01-01T01:13:59Z</time>
      </trkpt>
      <trkpt lat="31.78312000" lon="34.99019000">
        <ele>333.00000</ele>
        <time>2010-01-01T01:14:11Z</time>
      </trkpt>
      <trkpt lat="31.78275000" lon="34.98982000">
        <ele>332.00000</ele>
        <time>2010-01-01T01:14:31Z</time>
      </trkpt>
      <trkpt lat="31.78262000" lon="34.98986000">
        <ele>334.00000</ele>
        <time>2010-01-01T01:14:36Z</time>
      </trkpt>
      <trkpt lat="31.78241000" lon="34.99000000">
        <ele>336.00000</ele>
        <time>2010-01-01T01:14:46Z</time>
      </trkpt>
      <trkpt lat="31.78229000" lon="34.99005000">
        <ele>335.00000</ele>
        <time>2010-01-01T01:14:51Z</time>
      </trkpt>
      <trkpt lat="31.78211000" lon="34.98994000">
        <ele>332.00000</ele>
        <time>2010-01-01T01:14:59Z</time>
      </trkpt>
      <trkpt lat="31.78191000" lon="34.99008000">
        <ele>331.00000</ele>
        <time>2010-01-01T01:15:08Z</time>
      </trkpt>
      <trkpt lat="31.78189000" lon="34.99018000">
        <ele>331.00000</ele>
        <time>2010-01-01T01:15:12Z</time>
      </trkpt>
      <trkpt lat="31.78192000" lon="34.99033000">
        <ele>332.00000</ele>
        <time>2010-01-01T01:15:17Z</time>
      </trkpt>
      <trkpt lat="31.78193000" lon="34.99092000">
        <ele>338.00000</ele>
        <time>2010-01-01T01:15:37Z</time>
      </trkpt>
      <trkpt lat="31.78195000" lon="34.99125000">
        <ele>341.00000</ele>
        <time>2010-01-01T01:15:48Z</time>
      </trkpt>
      <trkpt lat="31.78191000" lon="34.99164000">
        <ele>342.00000</ele>
        <time>2010-01-01T01:16:02Z</time>
      </trkpt>
      <trkpt lat="31.78182000" lon="34.99204000">
        <ele>344.00000</ele>
        <time>2010-01-01T01:16:16Z</time>
      </trkpt>
      <trkpt lat="31.78180000" lon="34.99212000">
        <ele>345.00000</ele>
        <time>2010-01-01T01:16:18Z</time>
      </trkpt>
      <trkpt lat="31.78175000" lon="34.99216000">
        <ele>344.00000</ele>
        <time>2010-01-01T01:16:21Z</time>
      </trkpt>
      <trkpt lat="31.78164000" lon="34.99214000">
        <ele>343.00000</ele>
        <time>2010-01-01T01:16:25Z</time>
      </trkpt>
      <trkpt lat="31.78126000" lon="34.99197000">
        <ele>343.00000</ele>
        <time>2010-01-01T01:16:42Z</time>
      </trkpt>
      <trkpt lat="31.78095000" lon="34.99182000">
        <ele>344.00000</ele>
        <time>2010-01-01T01:16:55Z</time>
      </trkpt>
      <trkpt lat="31.78042000" lon="34.99169000">
        <ele>345.00000</ele>
        <time>2010-01-01T01:17:17Z</time>
      </trkpt>
      <trkpt lat="31.78005000" lon="34.99148000">
        <ele>343.00000</ele>
        <time>2010-01-01T01:17:33Z</time>
      </trkpt>
      <trkpt lat="31.78002000" lon="34.99145000">
        <ele>342.00000</ele>
        <time>2010-01-01T01:17:35Z</time>
      </trkpt>
      <trkpt lat="31.77973000" lon="34.99120000">
        <ele>340.00000</ele>
        <time>2010-01-01T01:17:49Z</time>
      </trkpt>
      <trkpt lat="31.77927000" lon="34.99087000">
        <ele>337.00000</ele>
        <time>2010-01-01T01:18:11Z</time>
      </trkpt>
      <trkpt lat="31.77907000" lon="34.99069000">
        <ele>334.00000</ele>
        <time>2010-01-01T01:18:21Z</time>
      </trkpt>
      <trkpt lat="31.77876000" lon="34.99053000">
        <ele>335.00000</ele>
        <time>2010-01-01T01:18:34Z</time>
      </trkpt>
      <trkpt lat="31.77853000" lon="34.99029000">
        <ele>340.00000</ele>
        <time>2010-01-01T01:18:47Z</time>
      </trkpt>
      <trkpt lat="31.77850000" lon="34.99007000">
        <ele>342.00000</ele>
        <time>2010-01-01T01:18:54Z</time>
      </trkpt>
      <trkpt lat="31.77856000" lon="34.98980000">
        <ele>342.00000</ele>
        <time>2010-01-01T01:19:04Z</time>
      </trkpt>
      <trkpt lat="31.77849000" lon="34.98936000">
        <ele>349.00000</ele>
        <time>2010-01-01T01:19:19Z</time>
      </trkpt>
      <trkpt lat="31.77851000" lon="34.98928000">
        <ele>350.00000</ele>
        <time>2010-01-01T01:19:22Z</time>
      </trkpt>
      <trkpt lat="31.77878000" lon="34.98871000">
        <ele>347.00000</ele>
        <time>2010-01-01T01:19:44Z</time>
      </trkpt>
      <trkpt lat="31.77870000" lon="34.98834000">
        <ele>345.00000</ele>
        <time>2010-01-01T01:19:57Z</time>
      </trkpt>
      <trkpt lat="31.77853000" lon="34.98817000">
        <ele>343.00000</ele>
        <time>2010-01-01T01:20:06Z</time>
      </trkpt>
      <trkpt lat="31.77800000" lon="34.98796000">
        <ele>343.00000</ele>
        <time>2010-01-01T01:20:28Z</time>
      </trkpt>
      <trkpt lat="31.77748000" lon="34.98758000">
        <ele>339.00000</ele>
        <time>2010-01-01T01:20:53Z</time>
      </trkpt>
      <trkpt lat="31.77700000" lon="34.98710000">
        <ele>338.00000</ele>
        <time>2010-01-01T01:21:18Z</time>
      </trkpt>
      <trkpt lat="31.77671000" lon="34.98661000">
        <ele>340.00000</ele>
        <time>2010-01-01T01:21:38Z</time>
      </trkpt>
      <trkpt lat="31.77666000" lon="34.98629000">
        <ele>342.00000</ele>
        <time>2010-01-01T01:21:49Z</time>
      </trkpt>
      <trkpt lat="31.77659000" lon="34.98621000">
        <ele>344.00000</ele>
        <time>2010-01-01T01:21:53Z</time>
      </trkpt>
      <trkpt lat="31.77658000" lon="34.98583000">
        <ele>347.00000</ele>
        <time>2010-01-01T01:22:06Z</time>
      </trkpt>
      <trkpt lat="31.77652000" lon="34.98558000">
        <ele>350.00000</ele>
        <time>2010-01-01T01:22:15Z</time>
      </trkpt>
      <trkpt lat="31.77639000" lon="34.98519000">
        <ele>351.00000</ele>
        <time>2010-01-01T01:22:29Z</time>
      </trkpt>
      <trkpt lat="31.77632000" lon="34.98473000">
        <ele>349.00000</ele>
        <time>2010-01-01T01:22:45Z</time>
      </trkpt>
      <trkpt lat="31.77622000" lon="34.98443000">
        <ele>348.00000</ele>
        <time>2010-01-01T01:22:56Z</time>
      </trkpt>
      <trkpt lat="31.77610000" lon="34.98426000">
        <ele>349.00000</ele>
        <time>2010-01-01T01:23:04Z</time>
      </trkpt>
      <trkpt lat="31.77570000" lon="34.98399000">
        <ele>353.00000</ele>
        <time>2010-01-01T01:23:22Z</time>
      </trkpt>
      <trkpt lat="31.77505000" lon="34.98390000">
        <ele>360.00000</ele>
        <time>2010-01-01T01:23:48Z</time>
      </trkpt>
      <trkpt lat="31.77429000" lon="34.98389000">
        <ele>367.00000</ele>
        <time>2010-01-01T01:24:19Z</time>
      </trkpt>
      <trkpt lat="31.77411000" lon="34.98391000">
        <ele>368.00000</ele>
        <time>2010-01-01T01:24:26Z</time>
      </trkpt>
      <trkpt lat="31.77389000" lon="34.98398000">
        <ele>370.00000</ele>
        <time>2010-01-01T01:24:35Z</time>
      </trkpt>
      <trkpt lat="31.77379000" lon="34.98394000">
        <ele>371.00000</ele>
        <time>2010-01-01T01:24:39Z</time>
      </trkpt>
      <trkpt lat="31.77368000" lon="34.98380000">
        <ele>372.00000</ele>
        <time>2010-01-01T01:24:46Z</time>
      </trkpt>
      <trkpt lat="31.77372000" lon="34.98355000">
        <ele>375.00000</ele>
        <time>2010-01-01T01:24:55Z</time>
      </trkpt>
      <trkpt lat="31.77396000" lon="34.98318000">
        <ele>378.00000</ele>
        <time>2010-01-01T01:25:10Z</time>
      </trkpt>
      <trkpt lat="31.77429000" lon="34.98257000">
        <ele>385.00000</ele>
        <time>2010-01-01T01:25:35Z</time>
      </trkpt>
      <trkpt lat="31.77448000" lon="34.98233000">
        <ele>390.00000</ele>
        <time>2010-01-01T01:25:46Z</time>
      </trkpt>
      <trkpt lat="31.77476000" lon="34.98229000">
        <ele>388.00000</ele>
        <time>2010-01-01T01:25:57Z</time>
      </trkpt>
      <trkpt lat="31.77506000" lon="34.98238000">
        <ele>384.00000</ele>
        <time>2010-01-01T01:26:10Z</time>
      </trkpt>
      <trkpt lat="31.77539000" lon="34.98242000">
        <ele>385.00000</ele>
        <time>2010-01-01T01:26:23Z</time>
      </trkpt>
      <trkpt lat="31.77563000" lon="34.98236000">
        <ele>391.00000</ele>
        <time>2010-01-01T01:26:33Z</time>
      </trkpt>
      <trkpt lat="31.77589000" lon="34.98222000">
        <ele>396.00000</ele>
        <time>2010-01-01T01:26:44Z</time>
      </trkpt>
      <trkpt lat="31.77614000" lon="34.98196000">
        <ele>397.00000</ele>
        <time>2010-01-01T01:26:58Z</time>
      </trkpt>
      <trkpt lat="31.77630000" lon="34.98175000">
        <ele>396.00000</ele>
        <time>2010-01-01T01:27:07Z</time>
      </trkpt>
      <trkpt lat="31.77635000" lon="34.98148000">
        <ele>396.00000</ele>
        <time>2010-01-01T01:27:17Z</time>
      </trkpt>
      <trkpt lat="31.77612000" lon="34.98129000">
        <ele>395.00000</ele>
        <time>2010-01-01T01:27:28Z</time>
      </trkpt>
      <trkpt lat="31.77548000" lon="34.98089000">
        <ele>399.00000</ele>
        <time>2010-01-01T01:27:57Z</time>
      </trkpt>
      <trkpt lat="31.77502000" lon="34.98007000">
        <ele>401.00000</ele>
        <time>2010-01-01T01:28:30Z</time>
      </trkpt>
      <trkpt lat="31.77505000" lon="34.97969000">
        <ele>398.00000</ele>
        <time>2010-01-01T01:28:43Z</time>
      </trkpt>
      <trkpt lat="31.77517000" lon="34.97943000">
        <ele>398.00000</ele>
        <time>2010-01-01T01:28:53Z</time>
      </trkpt>
      <trkpt lat="31.77594000" lon="34.97838000">
        <ele>398.00000</ele>
        <time>2010-01-01T01:29:41Z</time>
      </trkpt>
      <trkpt lat="31.77622000" lon="34.97763000">
        <ele>395.00000</ele>
        <time>2010-01-01T01:30:09Z</time>
      </trkpt>
      <trkpt lat="31.77638000" lon="34.97726000">
        <ele>395.00000</ele>
        <time>2010-01-01T01:30:23Z</time>
      </trkpt>
      <trkpt lat="31.77635000" lon="34.97704000">
        <ele>395.00000</ele>
        <time>2010-01-01T01:30:30Z</time>
      </trkpt>
      <trkpt lat="31.77610000" lon="34.97677000">
        <ele>395.00000</ele>
        <time>2010-01-01T01:30:44Z</time>
      </trkpt>
      <trkpt lat="31.77564000" lon="34.97622000">
        <ele>389.00000</ele>
        <time>2010-01-01T01:31:10Z</time>
      </trkpt>
      <trkpt lat="31.77556000" lon="34.97597000">
        <ele>387.00000</ele>
        <time>2010-01-01T01:31:19Z</time>
      </trkpt>
      <trkpt lat="31.77555000" lon="34.97569000">
        <ele>386.00000</ele>
        <time>2010-01-01T01:31:29Z</time>
      </trkpt>
      <trkpt lat="31.77557000" lon="34.97556000">
        <ele>386.00000</ele>
        <time>2010-01-01T01:31:33Z</time>
      </trkpt>
      <trkpt lat="31.77588000" lon="34.97479000">
        <ele>384.00000</ele>
        <time>2010-01-01T01:32:02Z</time>
      </trkpt>
      <trkpt lat="31.77591730" lon="34.97467510">
        <ele>384.00000</ele>
        <time>2010-01-01T01:32:06Z</time>
      </trkpt>
      <trkpt lat="31.77592000" lon="34.97453000">
        <ele>383.00000</ele>
        <time>2010-01-01T01:32:11Z</time>
      </trkpt>
      <trkpt lat="31.77570760" lon="34.97415480">
        <ele>381.00000</ele>
        <time>2010-01-01T01:32:27Z</time>
      </trkpt>
      <trkpt lat="31.77537010" lon="34.97382220">
        <ele>381.00000</ele>
        <time>2010-01-01T01:32:44Z</time>
      </trkpt>
      <trkpt lat="31.77519000" lon="34.97331000">
        <ele>381.00000</ele>
        <time>2010-01-01T01:33:03Z</time>
      </trkpt>
      <trkpt lat="31.77519000" lon="34.97314000">
        <ele>380.00000</ele>
        <time>2010-01-01T01:33:09Z</time>
      </trkpt>
      <trkpt lat="31.77526000" lon="34.97288000">
        <ele>379.00000</ele>
        <time>2010-01-01T01:33:18Z</time>
      </trkpt>
      <trkpt lat="31.77542940" lon="34.97240600">
        <ele>379.00000</ele>
        <time>2010-01-01T01:33:36Z</time>
      </trkpt>
      <trkpt lat="31.77547000" lon="34.97183000">
        <ele>380.00000</ele>
        <time>2010-01-01T01:33:55Z</time>
      </trkpt>
      <trkpt lat="31.77548000" lon="34.97118000">
        <ele>377.00000</ele>
        <time>2010-01-01T01:34:18Z</time>
      </trkpt>
      <trkpt lat="31.77552000" lon="34.97101000">
        <ele>376.00000</ele>
        <time>2010-01-01T01:34:24Z</time>
      </trkpt>
      <trkpt lat="31.77580000" lon="34.97080000">
        <ele>376.00000</ele>
        <time>2010-01-01T01:34:37Z</time>
      </trkpt>
      <trkpt lat="31.77597000" lon="34.97078000">
        <ele>378.00000</ele>
        <time>2010-01-01T01:34:44Z</time>
      </trkpt>
      <trkpt lat="31.77637000" lon="34.97071000">
        <ele>376.00000</ele>
        <time>2010-01-01T01:35:00Z</time>
      </trkpt>
      <trkpt lat="31.77670000" lon="34.97062000">
        <ele>373.00000</ele>
        <time>2010-01-01T01:35:13Z</time>
      </trkpt>
      <trkpt lat="31.77696000" lon="34.97029000">
        <ele>371.00000</ele>
        <time>2010-01-01T01:35:29Z</time>
      </trkpt>
      <trkpt lat="31.77708480" lon="34.97042650">
        <ele>374.00000</ele>
        <time>2010-01-01T01:35:36Z</time>
      </trkpt>
      <trkpt lat="31.77737660" lon="34.97070550">
        <ele>378.00000</ele>
        <time>2010-01-01T01:35:51Z</time>
      </trkpt>
      <trkpt lat="31.77754990" lon="34.96979350">
        <ele>380.00000</ele>
        <time>2010-01-01T01:36:22Z</time>
      </trkpt>
      <trkpt lat="31.77754990" lon="34.96897810">
        <ele>385.00000</ele>
        <time>2010-01-01T01:36:50Z</time>
      </trkpt>
      <trkpt lat="31.77762290" lon="34.96803400">
        <ele>379.00000</ele>
        <time>2010-01-01T01:37:22Z</time>
      </trkpt>
      <trkpt lat="31.77784180" lon="34.96730440">
        <ele>372.00000</ele>
        <time>2010-01-01T01:37:49Z</time>
      </trkpt>
      <trkpt lat="31.77800600" lon="34.96684310">
        <ele>360.00000</ele>
        <time>2010-01-01T01:38:06Z</time>
      </trkpt>
      <trkpt lat="31.77817000" lon="34.96644000">
        <ele>353.00000</ele>
        <time>2010-01-01T01:38:21Z</time>
      </trkpt>
      <trkpt lat="31.77833000" lon="34.96655000">
        <ele>353.00000</ele>
        <time>2010-01-01T01:38:28Z</time>
      </trkpt>
      <trkpt lat="31.77846000" lon="34.96692000">
        <ele>353.00000</ele>
        <time>2010-01-01T01:38:42Z</time>
      </trkpt>
      <trkpt lat="31.77877000" lon="34.96833000">
        <ele>347.00000</ele>
        <time>2010-01-01T01:39:32Z</time>
      </trkpt>
      <trkpt lat="31.77895000" lon="34.96916000">
        <ele>349.00000</ele>
        <time>2010-01-01T01:40:01Z</time>
      </trkpt>
      <trkpt lat="31.77905000" lon="34.96929000">
        <ele>351.00000</ele>
        <time>2010-01-01T01:40:07Z</time>
      </trkpt>
      <trkpt lat="31.77924000" lon="34.96824000">
        <ele>343.00000</ele>
        <time>2010-01-01T01:40:43Z</time>
      </trkpt>
      <trkpt lat="31.77921000" lon="34.96785000">
        <ele>339.00000</ele>
        <time>2010-01-01T01:40:57Z</time>
      </trkpt>
      <trkpt lat="31.77924000" lon="34.96757000">
        <ele>337.00000</ele>
        <time>2010-01-01T01:41:06Z</time>
      </trkpt>
      <trkpt lat="31.77942000" lon="34.96663000">
        <ele>330.00000</ele>
        <time>2010-01-01T01:41:39Z</time>
      </trkpt>
      <trkpt lat="31.77961000" lon="34.96626000">
        <ele>328.00000</ele>
        <time>2010-01-01T01:41:54Z</time>
      </trkpt>
      <trkpt lat="31.77992000" lon="34.96579000">
        <ele>324.00000</ele>
        <time>2010-01-01T01:42:14Z</time>
      </trkpt>
      <trkpt lat="31.78013000" lon="34.96536000">
        <ele>322.00000</ele>
        <time>2010-01-01T01:42:31Z</time>
      </trkpt>
      <trkpt lat="31.78045000" lon="34.96501000">
        <ele>316.00000</ele>
        <time>2010-01-01T01:42:48Z</time>
      </trkpt>
      <trkpt lat="31.78076000" lon="34.96478000">
        <ele>309.00000</ele>
        <time>2010-01-01T01:43:03Z</time>
      </trkpt>
      <trkpt lat="31.78085000" lon="34.96466000">
        <ele>307.00000</ele>
        <time>2010-01-01T01:43:08Z</time>
      </trkpt>
      <trkpt lat="31.78096000" lon="34.96444000">
        <ele>307.00000</ele>
        <time>2010-01-01T01:43:17Z</time>
      </trkpt>
      <trkpt lat="31.78154000" lon="34.96371000">
        <ele>300.00000</ele>
        <time>2010-01-01T01:43:51Z</time>
      </trkpt>
      <trkpt lat="31.78225000" lon="34.96204000">
        <ele>301.00000</ele>
        <time>2010-01-01T01:44:55Z</time>
      </trkpt>
      <trkpt lat="31.78240000" lon="34.96165000">
        <ele>300.00000</ele>
        <time>2010-01-01T01:45:09Z</time>
      </trkpt>
      <trkpt lat="31.78261000" lon="34.96099000">
        <ele>301.00000</ele>
        <time>2010-01-01T01:45:33Z</time>
      </trkpt>
      <trkpt lat="31.78273000" lon="34.96023000">
        <ele>301.00000</ele>
        <time>2010-01-01T01:45:59Z</time>
      </trkpt>
      <trkpt lat="31.78269000" lon="34.96001000">
        <ele>302.00000</ele>
        <time>2010-01-01T01:46:07Z</time>
      </trkpt>
      <trkpt lat="31.78269000" lon="34.95965000">
        <ele>302.00000</ele>
        <time>2010-01-01T01:46:19Z</time>
      </trkpt>
      <trkpt lat="31.78297000" lon="34.95942000">
        <ele>297.00000</ele>
        <time>2010-01-01T01:46:33Z</time>
      </trkpt>
      <trkpt lat="31.78322000" lon="34.95929000">
        <ele>296.00000</ele>
        <time>2010-01-01T01:46:44Z</time>
      </trkpt>
      <trkpt lat="31.78352000" lon="34.95914000">
        <ele>294.00000</ele>
        <time>2010-01-01T01:46:57Z</time>
      </trkpt>
      <trkpt lat="31.78398000" lon="34.95885000">
        <ele>287.00000</ele>
        <time>2010-01-01T01:47:18Z</time>
      </trkpt>
      <trkpt lat="31.78467000" lon="34.95820000">
        <ele>288.00000</ele>
        <time>2010-01-01T01:47:53Z</time>
      </trkpt>
      <trkpt lat="31.78616000" lon="34.95687000">
        <ele>293.00000</ele>
        <time>2010-01-01T01:49:08Z</time>
      </trkpt>
      <trkpt lat="31.78650000" lon="34.95653000">
        <ele>293.00000</ele>
        <time>2010-01-01T01:49:26Z</time>
      </trkpt>
      <trkpt lat="31.78698000" lon="34.95623000">
        <ele>292.00000</ele>
        <time>2010-01-01T01:49:48Z</time>
      </trkpt>
      <trkpt lat="31.78719000" lon="34.95613000">
        <ele>291.00000</ele>
        <time>2010-01-01T01:49:57Z</time>
      </trkpt>
      <trkpt lat="31.78755000" lon="34.95591000">
        <ele>290.00000</ele>
        <time>2010-01-01T01:50:13Z</time>
      </trkpt>
      <trkpt lat="31.78804000" lon="34.95551000">
        <ele>286.00000</ele>
        <time>2010-01-01T01:50:37Z</time>
      </trkpt>
      <trkpt lat="31.78813000" lon="34.95518000">
        <ele>284.00000</ele>
        <time>2010-01-01T01:50:49Z</time>
      </trkpt>
      <trkpt lat="31.78808000" lon="34.95465000">
        <ele>282.00000</ele>
        <time>2010-01-01T01:51:07Z</time>
      </trkpt>
      <trkpt lat="31.78838000" lon="34.95411000">
        <ele>282.00000</ele>
        <time>2010-01-01T01:51:29Z</time>
      </trkpt>
      <trkpt lat="31.78893000" lon="34.95327000">
        <ele>280.00000</ele>
        <time>2010-01-01T01:52:05Z</time>
      </trkpt>
      <trkpt lat="31.78927000" lon="34.95281000">
        <ele>276.00000</ele>
        <time>2010-01-01T01:52:26Z</time>
      </trkpt>
      <trkpt lat="31.78945000" lon="34.95260000">
        <ele>275.00000</ele>
        <time>2010-01-01T01:52:36Z</time>
      </trkpt>
      <trkpt lat="31.78983000" lon="34.95221000">
        <ele>271.00000</ele>
        <time>2010-01-01T01:52:56Z</time>
      </trkpt>
      <trkpt lat="31.78975000" lon="34.95193000">
        <ele>270.00000</ele>
        <time>2010-01-01T01:53:06Z</time>
      </trkpt>
      <trkpt lat="31.78971000" lon="34.95177000">
        <ele>269.00000</ele>
        <time>2010-01-01T01:53:12Z</time>
      </trkpt>
      <trkpt lat="31.78957000" lon="34.95145000">
        <ele>263.00000</ele>
        <time>2010-01-01T01:53:24Z</time>
      </trkpt>
      <trkpt lat="31.78964000" lon="34.95110000">
        <ele>259.00000</ele>
        <time>2010-01-01T01:53:36Z</time>
      </trkpt>
      <trkpt lat="31.78984000" lon="34.95087000">
        <ele>257.00000</ele>
        <time>2010-01-01T01:53:47Z</time>
      </trkpt>
      <trkpt lat="31.79008000" lon="34.95043000">
        <ele>253.00000</ele>
        <time>2010-01-01T01:54:05Z</time>
      </trkpt>
      <trkpt lat="31.79041000" lon="34.94988000">
        <ele>250.00000</ele>
        <time>2010-01-01T01:54:28Z</time>
      </trkpt>
      <trkpt lat="31.79075000" lon="34.94954000">
        <ele>243.00000</ele>
        <time>2010-01-01T01:54:46Z</time>
      </trkpt>
      <trkpt lat="31.79094000" lon="34.94946000">
        <ele>240.00000</ele>
        <time>2010-01-01T01:54:54Z</time>
      </trkpt>
      <trkpt lat="31.79120000" lon="34.94925000">
        <ele>237.00000</ele>
        <time>2010-01-01T01:55:07Z</time>
      </trkpt>
      <trkpt lat="31.79150000" lon="34.94887000">
        <ele>233.00000</ele>
        <time>2010-01-01T01:55:24Z</time>
      </trkpt>
      <trkpt lat="31.79212000" lon="34.94822000">
        <ele>229.00000</ele>
        <time>2010-01-01T01:55:58Z</time>
      </trkpt>
      <trkpt lat="31.79228000" lon="34.94804000">
        <ele>227.00000</ele>
        <time>2010-01-01T01:56:06Z</time>
      </trkpt>
      <trkpt lat="31.79255000" lon="34.94777000">
        <ele>223.00000</ele>
        <time>2010-01-01T01:56:21Z</time>
      </trkpt>
      <trkpt lat="31.79282000" lon="34.94777000">
        <ele>222.00000</ele>
        <time>2010-01-01T01:56:31Z</time>
      </trkpt>
      <trkpt lat="31.79294000" lon="34.94787000">
        <ele>222.00000</ele>
        <time>2010-01-01T01:56:37Z</time>
      </trkpt>
      <trkpt lat="31.79317000" lon="34.94801000">
        <ele>220.00000</ele>
        <time>2010-01-01T01:56:48Z</time>
      </trkpt>
      <trkpt lat="31.79326000" lon="34.94804000">
        <ele>219.00000</ele>
        <time>2010-01-01T01:56:51Z</time>
      </trkpt>
      <trkpt lat="31.79376000" lon="34.94797000">
        <ele>213.00000</ele>
        <time>2010-01-01T01:57:12Z</time>
      </trkpt>
      <trkpt lat="31.79384000" lon="34.94794000">
        <ele>212.00000</ele>
        <time>2010-01-01T01:57:15Z</time>
      </trkpt>
      <trkpt lat="31.79401000" lon="34.94785000">
        <ele>211.00000</ele>
        <time>2010-01-01T01:57:22Z</time>
      </trkpt>
      <trkpt lat="31.79552000" lon="34.94684000">
        <ele>202.00000</ele>
        <time>2010-01-01T01:58:32Z</time>
      </trkpt>
      <trkpt lat="31.79590000" lon="34.94697000">
        <ele>199.00000</ele>
        <time>2010-01-01T01:58:48Z</time>
      </trkpt>
      <trkpt lat="31.79600000" lon="34.94729000">
        <ele>196.00000</ele>
        <time>2010-01-01T01:58:59Z</time>
      </trkpt>
      <trkpt lat="31.79588000" lon="34.94829000">
        <ele>190.00000</ele>
        <time>2010-01-01T01:59:34Z</time>
      </trkpt>
      <trkpt lat="31.79572000" lon="34.94888000">
        <ele>187.00000</ele>
        <time>2010-01-01T01:59:55Z</time>
      </trkpt>
      <trkpt lat="31.79556000" lon="34.94926000">
        <ele>185.00000</ele>
        <time>2010-01-01T02:00:09Z</time>
      </trkpt>
      <trkpt lat="31.79553000" lon="34.94940000">
        <ele>184.00000</ele>
        <time>2010-01-01T02:00:14Z</time>
      </trkpt>
      <trkpt lat="31.79575000" lon="34.94967000">
        <ele>180.00000</ele>
        <time>2010-01-01T02:00:27Z</time>
      </trkpt>
      <trkpt lat="31.79619000" lon="34.94954000">
        <ele>179.00000</ele>
        <time>2010-01-01T02:00:45Z</time>
      </trkpt>
      <trkpt lat="31.79657000" lon="34.94897000">
        <ele>178.00000</ele>
        <time>2010-01-01T02:01:10Z</time>
      </trkpt>
      <trkpt lat="31.79699000" lon="34.94833000">
        <ele>174.00000</ele>
        <time>2010-01-01T02:01:37Z</time>
      </trkpt>
      <trkpt lat="31.79789000" lon="34.94743000">
        <ele>168.00000</ele>
        <time>2010-01-01T02:02:24Z</time>
      </trkpt>
      <trkpt lat="31.79838000" lon="34.94709000">
        <ele>165.00000</ele>
        <time>2010-01-01T02:02:47Z</time>
      </trkpt>
      <trkpt lat="31.79871000" lon="34.94732000">
        <ele>165.00000</ele>
        <time>2010-01-01T02:03:03Z</time>
      </trkpt>
      <trkpt lat="31.79872000" lon="34.94739000">
        <ele>165.00000</ele>
        <time>2010-01-01T02:03:05Z</time>
      </trkpt>
      <trkpt lat="31.79872000" lon="34.94834000">
        <ele>170.00000</ele>
        <time>2010-01-01T02:03:37Z</time>
      </trkpt>
      <trkpt lat="31.79875000" lon="34.94873000">
        <ele>173.00000</ele>
        <time>2010-01-01T02:03:51Z</time>
      </trkpt>
      <trkpt lat="31.79926000" lon="34.94967000">
        <ele>172.00000</ele>
        <time>2010-01-01T02:04:29Z</time>
      </trkpt>
      <trkpt lat="31.79991000" lon="34.95062000">
        <ele>171.00000</ele>
        <time>2010-01-01T02:05:10Z</time>
      </trkpt>
      <trkpt lat="31.80068000" lon="34.95143000">
        <ele>166.00000</ele>
        <time>2010-01-01T02:05:51Z</time>
      </trkpt>
      <trkpt lat="31.80137000" lon="34.95175000">
        <ele>165.00000</ele>
        <time>2010-01-01T02:06:21Z</time>
      </trkpt>
      <trkpt lat="31.80157000" lon="34.95167000">
        <ele>167.00000</ele>
        <time>2010-01-01T02:06:30Z</time>
      </trkpt>
      <trkpt lat="31.80198000" lon="34.95055000">
        <ele>167.00000</ele>
        <time>2010-01-01T02:07:11Z</time>
      </trkpt>
      <trkpt lat="31.80266000" lon="34.95030000">
        <ele>166.00000</ele>
        <time>2010-01-01T02:07:40Z</time>
      </trkpt>
      <trkpt lat="31.80330000" lon="34.95028000">
        <ele>169.00000</ele>
        <time>2010-01-01T02:08:05Z</time>
      </trkpt>
      <trkpt lat="31.80385000" lon="34.95036000">
        <ele>171.00000</ele>
        <time>2010-01-01T02:08:27Z</time>
      </trkpt>
      <trkpt lat="31.80436000" lon="34.95056000">
        <ele>173.00000</ele>
        <time>2010-01-01T02:08:49Z</time>
      </trkpt>
      <trkpt lat="31.80480000" lon="34.95081000">
        <ele>179.00000</ele>
        <time>2010-01-01T02:09:08Z</time>
      </trkpt>
      <trkpt lat="31.80521000" lon="34.95111000">
        <ele>177.00000</ele>
        <time>2010-01-01T02:09:28Z</time>
      </trkpt>
      <trkpt lat="31.80541000" lon="34.95165000">
        <ele>179.00000</ele>
        <time>2010-01-01T02:09:48Z</time>
      </trkpt>
      <trkpt lat="31.80552000" lon="34.95198000">
        <ele>183.00000</ele>
        <time>2010-01-01T02:10:00Z</time>
      </trkpt>
      <trkpt lat="31.80566000" lon="34.95229000">
        <ele>185.00000</ele>
        <time>2010-01-01T02:10:12Z</time>
      </trkpt>
      <trkpt lat="31.80586000" lon="34.95282000">
        <ele>192.00000</ele>
        <time>2010-01-01T02:10:32Z</time>
      </trkpt>
      <trkpt lat="31.80590000" lon="34.95291000">
        <ele>192.00000</ele>
        <time>2010-01-01T02:10:35Z</time>
      </trkpt>
      <trkpt lat="31.80598000" lon="34.95295000">
        <ele>192.00000</ele>
        <time>2010-01-01T02:10:38Z</time>
      </trkpt>
      <trkpt lat="31.80624000" lon="34.95306000">
        <ele>192.00000</ele>
        <time>2010-01-01T02:10:50Z</time>
      </trkpt>
      <trkpt lat="31.80665000" lon="34.95334000">
        <ele>192.00000</ele>
        <time>2010-01-01T02:11:09Z</time>
      </trkpt>
      <trkpt lat="31.80708000" lon="34.95344000">
        <ele>190.00000</ele>
        <time>2010-01-01T02:11:26Z</time>
      </trkpt>
      <trkpt lat="31.80780000" lon="34.95357000">
        <ele>190.00000</ele>
        <time>2010-01-01T02:11:55Z</time>
      </trkpt>
      <trkpt lat="31.80831000" lon="34.95382000">
        <ele>191.00000</ele>
        <time>2010-01-01T02:12:17Z</time>
      </trkpt>
      <trkpt lat="31.80866000" lon="34.95391000">
        <ele>193.00000</ele>
        <time>2010-01-01T02:12:32Z</time>
      </trkpt>
      <trkpt lat="31.80872000" lon="34.95398000">
        <ele>193.00000</ele>
        <time>2010-01-01T02:12:35Z</time>
      </trkpt>
      <trkpt lat="31.80880000" lon="34.95470000">
        <ele>197.00000</ele>
        <time>2010-01-01T02:13:00Z</time>
      </trkpt>
      <trkpt lat="31.80908000" lon="34.95515000">
        <ele>202.00000</ele>
        <time>2010-01-01T02:13:19Z</time>
      </trkpt>
      <trkpt lat="31.80901000" lon="34.95540000">
        <ele>206.00000</ele>
        <time>2010-01-01T02:13:28Z</time>
      </trkpt>
      <trkpt lat="31.80879000" lon="34.95568000">
        <ele>210.00000</ele>
        <time>2010-01-01T02:13:41Z</time>
      </trkpt>
      <trkpt lat="31.80867000" lon="34.95607000">
        <ele>212.00000</ele>
        <time>2010-01-01T02:13:55Z</time>
      </trkpt>
      <trkpt lat="31.80861000" lon="34.95656000">
        <ele>213.00000</ele>
        <time>2010-01-01T02:14:12Z</time>
      </trkpt>
      <trkpt lat="31.80953000" lon="34.95804000">
        <ele>214.00000</ele>
        <time>2010-01-01T02:15:14Z</time>
      </trkpt>
      <trkpt lat="31.80958000" lon="34.95857000">
        <ele>215.00000</ele>
        <time>2010-01-01T02:15:32Z</time>
      </trkpt>
      <trkpt lat="31.80883000" lon="34.95989000">
        <ele>215.00000</ele>
        <time>2010-01-01T02:16:26Z</time>
      </trkpt>
      <trkpt lat="31.80859000" lon="34.96038000">
        <ele>218.00000</ele>
        <time>2010-01-01T02:16:45Z</time>
      </trkpt>
      <trkpt lat="31.80847000" lon="34.96065000">
        <ele>221.00000</ele>
        <time>2010-01-01T02:16:56Z</time>
      </trkpt>
      <trkpt lat="31.80830400" lon="34.96096900">
        <ele>225.00000</ele>
        <time>2010-01-01T02:17:08Z</time>
      </trkpt>
      <trkpt lat="31.80854560" lon="34.96091000">
        <ele>224.00000</ele>
        <time>2010-01-01T02:17:18Z</time>
      </trkpt>
      <trkpt lat="31.80876440" lon="34.96091000">
        <ele>222.00000</ele>
        <time>2010-01-01T02:17:27Z</time>
      </trkpt>
      <trkpt lat="31.80922030" lon="34.96109240">
        <ele>220.00000</ele>
        <time>2010-01-01T02:17:46Z</time>
      </trkpt>
      <trkpt lat="31.80960320" lon="34.96088860">
        <ele>215.00000</ele>
        <time>2010-01-01T02:18:03Z</time>
      </trkpt>
      <trkpt lat="31.81062430" lon="34.96098510">
        <ele>207.00000</ele>
        <time>2010-01-01T02:18:44Z</time>
      </trkpt>
      <trkpt lat="31.81085230" lon="34.96110320">
        <ele>206.00000</ele>
        <time>2010-01-01T02:18:54Z</time>
      </trkpt>
      <trkpt lat="31.81183690" lon="34.96172540">
        <ele>200.00000</ele>
        <time>2010-01-01T02:19:39Z</time>
      </trkpt>
      <trkpt lat="31.81182780" lon="34.96203660">
        <ele>201.00000</ele>
        <time>2010-01-01T02:19:50Z</time>
      </trkpt>
      <trkpt lat="31.81172750" lon="34.96258370">
        <ele>202.00000</ele>
        <time>2010-01-01T02:20:09Z</time>
      </trkpt>
      <trkpt lat="31.81115310" lon="34.96418230">
        <ele>204.00000</ele>
        <time>2010-01-01T02:21:08Z</time>
      </trkpt>
      <trkpt lat="31.80982200" lon="34.96454710">
        <ele>215.00000</ele>
        <time>2010-01-01T02:22:02Z</time>
      </trkpt>
      <trkpt lat="31.80867320" lon="34.96548050">
        <ele>225.00000</ele>
        <time>2010-01-01T02:22:58Z</time>
      </trkpt>
      <trkpt lat="31.80832670" lon="34.96570580">
        <ele>229.00000</ele>
        <time>2010-01-01T02:23:14Z</time>
      </trkpt>
      <trkpt lat="31.80788910" lon="34.96579170">
        <ele>233.00000</ele>
        <time>2010-01-01T02:23:32Z</time>
      </trkpt>
      <trkpt lat="31.80752440" lon="34.96583460">
        <ele>234.00000</ele>
        <time>2010-01-01T02:23:46Z</time>
      </trkpt>
      <trkpt lat="31.80755000" lon="34.96609000">
        <ele>232.00000</ele>
        <time>2010-01-01T02:23:55Z</time>
      </trkpt>
      <trkpt lat="31.80756000" lon="34.96669000">
        <ele>225.00000</ele>
        <time>2010-01-01T02:24:16Z</time>
      </trkpt>
      <trkpt lat="31.80780000" lon="34.96823000">
        <ele>223.00000</ele>
        <time>2010-01-01T02:25:09Z</time>
      </trkpt>
      <trkpt lat="31.80816000" lon="34.96911000">
        <ele>225.00000</ele>
        <time>2010-01-01T02:25:42Z</time>
      </trkpt>
      <trkpt lat="31.80844000" lon="34.96996000">
        <ele>226.00000</ele>
        <time>2010-01-01T02:26:13Z</time>
      </trkpt>
      <trkpt lat="31.80902000" lon="34.97174000">
        <ele>222.00000</ele>
        <time>2010-01-01T02:27:18Z</time>
      </trkpt>
      <trkpt lat="31.80956000" lon="34.97296000">
        <ele>222.00000</ele>
        <time>2010-01-01T02:28:05Z</time>
      </trkpt>
      <trkpt lat="31.80970000" lon="34.97363000">
        <ele>224.00000</ele>
        <time>2010-01-01T02:28:28Z</time>
      </trkpt>
      <trkpt lat="31.80982000" lon="34.97395000">
        <ele>226.00000</ele>
        <time>2010-01-01T02:28:40Z</time>
      </trkpt>
      <trkpt lat="31.81014000" lon="34.97430000">
        <ele>227.00000</ele>
        <time>2010-01-01T02:28:58Z</time>
      </trkpt>
      <trkpt lat="31.81053000" lon="34.97460000">
        <ele>230.00000</ele>
        <time>2010-01-01T02:29:16Z</time>
      </trkpt>
      <trkpt lat="31.81082000" lon="34.97477000">
        <ele>233.00000</ele>
        <time>2010-01-01T02:29:29Z</time>
      </trkpt>
      <trkpt lat="31.81147000" lon="34.97515000">
        <ele>242.00000</ele>
        <time>2010-01-01T02:29:58Z</time>
      </trkpt>
      <trkpt lat="31.81174000" lon="34.97528000">
        <ele>243.00000</ele>
        <time>2010-01-01T02:30:10Z</time>
      </trkpt>
      <trkpt lat="31.81198000" lon="34.97535000">
        <ele>245.00000</ele>
        <time>2010-01-01T02:30:20Z</time>
      </trkpt>
      <trkpt lat="31.81234000" lon="34.97543000">
        <ele>250.00000</ele>
        <time>2010-01-01T02:30:35Z</time>
      </trkpt>
      <trkpt lat="31.81269000" lon="34.97557000">
        <ele>255.00000</ele>
        <time>2010-01-01T02:30:49Z</time>
      </trkpt>
      <trkpt lat="31.81298000" lon="34.97571000">
        <ele>258.00000</ele>
        <time>2010-01-01T02:31:02Z</time>
      </trkpt>
      <trkpt lat="31.81319000" lon="34.97582000">
        <ele>259.00000</ele>
        <time>2010-01-01T02:31:11Z</time>
      </trkpt>
      <trkpt lat="31.81343000" lon="34.97600000">
        <ele>262.00000</ele>
        <time>2010-01-01T02:31:22Z</time>
      </trkpt>
      <trkpt lat="31.81351000" lon="34.97609000">
        <ele>263.00000</ele>
        <time>2010-01-01T02:31:27Z</time>
      </trkpt>
      <trkpt lat="31.81361000" lon="34.97628000">
        <ele>266.00000</ele>
        <time>2010-01-01T02:31:35Z</time>
      </trkpt>
      <trkpt lat="31.81372000" lon="34.97643000">
        <ele>269.00000</ele>
        <time>2010-01-01T02:31:41Z</time>
      </trkpt>
      <trkpt lat="31.81381000" lon="34.97652000">
        <ele>270.00000</ele>
        <time>2010-01-01T02:31:46Z</time>
      </trkpt>
      <trkpt lat="31.81400000" lon="34.97664000">
        <ele>273.00000</ele>
        <time>2010-01-01T02:31:55Z</time>
      </trkpt>
      <trkpt lat="31.81420000" lon="34.97669000">
        <ele>275.00000</ele>
        <time>2010-01-01T02:32:03Z</time>
      </trkpt>
      <trkpt lat="31.81483000" lon="34.97669000">
        <ele>281.00000</ele>
        <time>2010-01-01T02:32:28Z</time>
      </trkpt>
      <trkpt lat="31.81505000" lon="34.97667000">
        <ele>283.00000</ele>
        <time>2010-01-01T02:32:37Z</time>
      </trkpt>
      <trkpt lat="31.81531000" lon="34.97685000">
        <ele>286.00000</ele>
        <time>2010-01-01T02:32:49Z</time>
      </trkpt>
      <trkpt lat="31.81541000" lon="34.97716000">
        <ele>289.00000</ele>
        <time>2010-01-01T02:33:00Z</time>
      </trkpt>
      <trkpt lat="31.81549000" lon="34.97735000">
        <ele>292.00000</ele>
        <time>2010-01-01T02:33:07Z</time>
      </trkpt>
      <trkpt lat="31.81554000" lon="34.97739000">
        <ele>292.00000</ele>
        <time>2010-01-01T02:33:10Z</time>
      </trkpt>
      <trkpt lat="31.81579000" lon="34.97745000">
        <ele>296.00000</ele>
        <time>2010-01-01T02:33:20Z</time>
      </trkpt>
      <trkpt lat="31.81602000" lon="34.97737000">
        <ele>297.00000</ele>
        <time>2010-01-01T02:33:30Z</time>
      </trkpt>
      <trkpt lat="31.81620400" lon="34.97820490">
        <ele>304.00000</ele>
        <time>2010-01-01T02:33:59Z</time>
      </trkpt>
      <trkpt lat="31.81621310" lon="34.97823710">
        <ele>304.00000</ele>
        <time>2010-01-01T02:34:00Z</time>
      </trkpt>
      <trkpt lat="31.81627690" lon="34.97862330">
        <ele>307.00000</ele>
        <time>2010-01-01T02:34:14Z</time>
      </trkpt>
      <trkpt lat="31.81617660" lon="34.98115530">
        <ele>305.00000</ele>
        <time>2010-01-01T02:35:40Z</time>
      </trkpt>
    </trkseg>
  </trk>
</gpx>

